Time;durP1;ratioP1;P1;durP2;ratioP2;P2;SDS_P1;SDS_P2;PMS_P1;PMS_P2;Temp;Humidity;BMP_temperature;BMP_pressure;BME280_temperature;BME280_humidity;BME280_pressure;Samples;Min_cycle;Max_cycle;Signal;HPM_P1;HPM_P2
2022/01/30 00:01:45;;;;;;;22.77;5.13;;;;;;;6.79;76.17;100261.47;5012327;28;20070;-60
2022/01/30 00:04:10;;;;;;;21.08;4.85;;;;;;;6.73;77.62;100257.75;5010747;28;20468;-60
2022/01/30 00:06:36;;;;;;;27.40;4.72;;;;;;;6.67;76.72;100274.50;5012034;28;20030;-59
2022/01/30 00:09:01;;;;;;;25.33;4.90;;;;;;;6.70;75.89;100274.13;5010823;28;20018;-59
2022/01/30 00:11:32;;;;;;;24.35;5.57;;;;;;;6.73;75.50;100268.41;5012080;28;20041;-59
2022/01/30 00:13:59;;;;;;;;;;;;;;;6.69;76.52;100273.28;5012487;28;20030;-59
2022/01/30 00:16:29;;;;;;;26.48;4.88;;;;;;;6.61;76.02;100270.75;5011959;28;19993;-59
2022/01/30 00:19:04;;;;;;;26.67;4.60;;;;;;;6.61;76.31;100268.09;5012256;28;20044;-59
2022/01/30 00:21:36;;;;;;;24.00;4.50;;;;;;;6.59;75.60;100256.81;5012163;28;20018;-59
2022/01/30 00:24:07;;;;;;;26.73;5.07;;;;;;;6.51;76.01;100248.94;5012062;28;20062;-59
2022/01/30 00:26:35;;;;;;;17.15;4.78;;;;;;;6.51;75.63;100256.94;5011880;28;20088;-59
2022/01/30 00:29:00;;;;;;;22.17;4.75;;;;;;;6.47;75.35;100258.34;5010372;28;20041;-59
2022/01/30 00:31:27;;;;;;;23.42;4.95;;;;;;;6.43;75.81;100273.84;5010049;28;20039;-59
2022/01/30 00:33:52;;;;;;;20.30;4.50;;;;;;;6.38;76.12;100272.78;5012035;28;20026;-59
2022/01/30 00:36:18;;;;;;;16.80;4.65;;;;;;;6.40;74.99;100273.44;5011682;28;20143;-59
2022/01/30 00:38:43;;;;;;;29.10;4.85;;;;;;;6.46;74.81;100272.66;5011647;28;20030;-59
2022/01/30 00:41:09;;;;;;;22.27;4.32;;;;;;;6.36;75.45;100285.47;5011599;28;20037;-59
2022/01/30 00:43:34;;;;;;;16.42;4.15;;;;;;;6.37;74.29;100271.16;5011471;28;20033;-59
2022/01/30 00:46:00;;;;;;;22.00;4.68;;;;;;;6.38;73.23;100281.59;5011096;28;20030;-59
2022/01/30 00:48:25;;;;;;;31.10;5.13;;;;;;;6.37;72.79;100284.47;5011413;28;20030;-59
2022/01/30 00:50:50;;;;;;;15.68;4.32;;;;;;;6.31;72.85;100279.88;5011514;28;20411;-59
2022/01/30 00:53:16;;;;;;;20.67;4.45;;;;;;;6.25;73.86;100282.28;5011332;28;20022;-59
2022/01/30 00:55:42;;;;;;;21.75;4.20;;;;;;;6.33;74.12;100283.19;5011448;28;20030;-59
2022/01/30 00:58:07;;;;;;;22.58;4.13;;;;;;;6.31;75.91;100290.53;5011415;28;20058;-59
2022/01/30 01:00:33;;;;;;;25.67;5.03;;;;;;;6.27;77.59;100300.75;5011752;28;20026;-59
2022/01/30 01:02:59;;;;;;;15.63;3.72;;;;;;;6.22;75.62;100305.81;5011192;28;20036;-60
2022/01/30 01:05:25;;;;;;;24.25;4.90;;;;;;;6.38;74.64;100294.91;5011550;28;20468;-59
2022/01/30 01:07:52;;;;;;;24.85;4.50;;;;;;;6.39;74.68;100293.91;5011833;28;20029;-59
2022/01/30 01:23:30;;;;;;;35.92;5.43;;;;;;;5.98;75.53;100291.78;5010890;28;20041;-61
2022/01/30 01:25:58;;;;;;;21.15;4.70;;;;;;;5.95;76.60;100296.69;5011606;28;20124;-60
2022/01/30 01:28:23;;;;;;;31.63;5.82;;;;;;;5.91;76.47;100295.34;5010928;28;20098;-60
2022/01/30 01:30:49;;;;;;;28.40;4.70;;;;;;;5.89;76.89;100297.38;5011332;28;20088;-60
2022/01/30 01:33:15;;;;;;;24.42;5.68;;;;;;;5.90;76.26;100309.69;5010935;28;20045;-60
2022/01/30 01:35:41;;;;;;;33.00;5.10;;;;;;;5.90;75.58;100299.88;5011434;28;20043;-60
2022/01/30 01:38:11;;;;;;;30.67;5.22;;;;;;;5.92;75.25;100292.53;5010998;28;20042;-60
2022/01/30 01:40:38;;;;;;;19.38;4.15;;;;;;;5.92;76.01;100297.03;5011984;28;20368;-60
2022/01/30 01:43:03;;;;;;;22.58;4.80;;;;;;;5.87;75.57;100307.41;5011691;28;20045;-60
2022/01/30 01:45:34;;;;;;;24.55;5.22;;;;;;;5.87;75.95;100307.41;5015254;28;20349;-60
2022/01/30 01:48:03;;;;;;;33.92;4.60;;;;;;;5.81;75.32;100304.44;5015001;28;20029;-60
2022/01/30 01:50:43;;;;;;;23.40;4.57;;;;;;;5.77;74.28;100297.88;5014620;28;20029;-59
2022/01/30 01:53:09;;;;;;;25.02;4.53;;;;;;;5.71;75.01;100306.56;4999586;28;20022;-60
2022/01/30 01:55:36;;;;;;;41.63;5.32;;;;;;;5.70;74.61;100310.25;5014913;28;20030;-59
2022/01/30 01:58:02;;;;;;;26.95;4.85;;;;;;;5.70;73.99;100314.75;5014762;28;20103;-60
2022/01/30 02:00:27;;;;;;;33.80;5.80;;;;;;;5.68;74.48;100330.88;4997018;28;20026;-60
2022/01/30 02:02:54;;;;;;;27.38;4.15;;;;;;;5.64;73.84;100316.28;5014324;28;20022;-60
2022/01/30 02:05:20;;;;;;;32.05;4.55;;;;;;;5.59;74.58;100331.97;5014491;28;20026;-60
2022/01/30 02:10:51;;;;;;;23.63;4.40;;;;;;;5.49;73.50;100328.75;4999638;28;20079;-60
2022/01/30 02:24:34;;;;;;;22.15;3.75;;;;;;;5.43;71.61;100318.88;5014039;28;20282;-60
2022/01/30 02:27:00;;;;;;;23.13;4.80;;;;;;;5.43;71.24;100308.22;5013803;28;20080;-60
2022/01/30 02:29:26;;;;;;;22.75;4.45;;;;;;;5.44;71.05;100309.88;5014235;28;20022;-60
2022/01/30 02:31:55;;;;;;;30.60;4.75;;;;;;;5.43;70.26;100318.88;5014024;28;20029;-60
2022/01/30 02:34:25;;;;;;;32.97;5.78;;;;;;;5.41;71.46;100314.53;5013980;28;20025;-59
2022/01/30 02:36:51;;;;;;;27.95;5.18;;;;;;;5.34;72.26;100321.63;5013742;28;20053;-60
2022/01/30 02:39:18;;;;;;;37.08;5.45;;;;;;;5.35;72.10;100311.78;5013722;28;20085;-60
2022/01/30 02:41:43;;;;;;;33.13;3.78;;;;;;;5.31;73.06;100319.28;5013590;28;20049;-60
2022/01/30 02:44:26;;;;;;;33.08;5.55;;;;;;;5.29;73.30;100329.31;5013734;28;20068;-60
2022/01/30 02:46:56;;;;;;;29.58;4.43;;;;;;;5.19;73.92;100318.09;5013488;28;20053;-60
2022/01/30 02:51:52;;;;;;;24.40;4.88;;;;;;;5.22;72.87;100333.69;5013960;28;20345;-59
2022/01/30 02:54:17;;;;;;;;;;;;;;;5.12;72.95;100328.63;5013305;28;20091;-60
2022/01/30 02:56:43;;;;;;;42.35;4.57;;;;;;;5.14;72.26;100333.75;5013325;28;19985;-59
2022/01/30 02:59:08;;;;;;;24.25;4.00;;;;;;;5.13;72.66;100340.91;5013374;28;20079;-59
2022/01/30 03:01:33;;;;;;;34.67;4.55;;;;;;;5.08;72.94;100347.75;5012178;28;20113;-59
2022/01/30 03:03:59;;;;;;;37.85;5.28;;;;;;;5.06;72.95;100344.44;5013387;28;20468;-60
2022/01/30 03:06:25;;;;;;;39.13;5.38;;;;;;;5.07;72.92;100344.28;5013303;28;20460;-60
2022/01/30 03:08:50;;;;;;;29.63;4.47;;;;;;;5.00;73.52;100353.16;5013568;28;20306;-60
2022/01/30 03:11:16;;;;;;;37.22;4.80;;;;;;;4.99;73.68;100360.28;5013157;28;20108;-60
2022/01/30 03:13:41;;;;;;;35.88;4.38;;;;;;;4.98;73.59;100358.63;5013089;28;20452;-60
2022/01/30 03:16:07;;;;;;;29.67;4.28;;;;;;;4.94;73.45;100362.63;5013009;28;20026;-60
2022/01/30 03:18:32;;;;;;;37.95;4.72;;;;;;;4.82;73.51;100359.59;5013376;28;20097;-60
2022/01/30 03:20:58;;;;;;;22.30;4.10;;;;;;;4.76;73.69;100360.28;5013096;28;20030;-60
2022/01/30 03:23:23;;;;;;;26.88;4.63;;;;;;;4.74;74.13;100368.44;5011945;28;20030;-60
2022/01/30 03:25:54;;;;;;;28.40;3.72;;;;;;;4.61;74.68;100364.72;5013068;28;20109;-60
2022/01/30 03:28:20;;;;;;;31.95;4.72;;;;;;;4.52;74.82;100359.47;5013356;28;20110;-60
2022/01/30 03:30:47;;;;;;;32.78;4.82;;;;;;;4.51;75.34;100368.41;5013037;28;20030;-60
2022/01/30 03:33:13;;;;;;;26.45;5.00;;;;;;;4.52;75.33;100367.41;5012573;28;20441;-60
2022/01/30 03:35:38;;;;;;;33.42;4.95;;;;;;;4.40;74.93;100368.81;5012456;28;20033;-60
2022/01/30 03:38:04;;;;;;;35.92;4.95;;;;;;;4.31;75.03;100375.16;5012551;28;20045;-61
2022/01/30 03:40:29;;;;;;;34.72;4.65;;;;;;;4.30;74.47;100371.69;5012741;28;20424;-60
2022/01/30 03:42:55;;;;;;;26.65;4.78;;;;;;;4.31;74.81;100383.13;5012260;28;20049;-59
2022/01/30 03:45:20;;;;;;;40.85;4.68;;;;;;;4.23;74.66;100383.16;5012548;28;20038;-59
2022/01/30 03:47:46;;;;;;;26.35;4.10;;;;;;;4.05;75.70;100378.09;5012545;28;20030;-60
2022/01/30 03:50:11;;;;;;;32.03;5.32;;;;;;;4.08;75.09;100380.41;5012413;28;20475;-60
2022/01/30 03:52:37;;;;;;;31.48;3.90;;;;;;;4.08;75.27;100378.56;5012540;28;20030;-59
2022/01/30 03:55:03;;;;;;;21.95;4.22;;;;;;;4.12;73.55;100379.06;5011372;28;20442;-60
2022/01/30 03:57:28;;;;;;;31.60;4.40;;;;;;;4.11;73.94;100383.53;5012637;28;20464;-60
2022/01/30 03:59:53;;;;;;;37.35;4.72;;;;;;;4.15;73.87;100385.88;5012696;28;20417;-60
2022/01/30 04:02:19;;;;;;;24.13;4.55;;;;;;;4.07;74.16;100387.53;5012355;28;20034;-60
2022/01/30 04:04:44;;;;;;;30.80;4.43;;;;;;;4.00;74.46;100386.56;5012097;28;20488;-60
2022/01/30 04:07:10;;;;;;;28.70;4.68;;;;;;;4.10;74.24;100403.13;5011236;28;20033;-60
2022/01/30 04:09:36;;;;;;;34.33;4.78;;;;;;;4.03;74.38;100394.19;5012612;28;20077;-59
2022/01/30 04:12:01;;;;;;;30.73;4.10;;;;;;;4.04;74.06;100392.34;5012092;28;20030;-60
2022/01/30 04:14:27;;;;;;;28.33;4.43;;;;;;;3.99;74.40;100394.69;5011973;28;20057;-60
2022/01/30 04:16:53;;;;;;;30.25;4.13;;;;;;;4.02;74.36;100404.97;5012134;28;20084;-60
2022/01/30 04:19:18;;;;;;;26.52;5.13;;;;;;;4.00;73.89;100404.31;5012316;28;20128;-60
2022/01/30 04:21:43;;;;;;;26.15;3.55;;;;;;;4.09;75.21;100414.75;5012122;28;20519;-60
2022/01/30 04:24:09;;;;;;;34.38;4.30;;;;;;;3.97;74.76;100408.16;5011925;28;20026;-60
2022/01/30 04:26:36;;;;;;;26.63;3.65;;;;;;;3.96;74.69;100417.09;5011929;28;20037;-60
2022/01/30 04:29:02;;;;;;;30.58;4.63;;;;;;;3.84;75.10;100410.47;5011921;28;20029;-59
2022/01/30 04:31:27;;;;;;;32.17;4.28;;;;;;;3.78;75.34;100414.66;5011562;28;20476;-60
2022/01/30 04:33:53;;;;;;;36.60;4.35;;;;;;;3.75;75.44;100415.00;5011818;28;20046;-60
2022/01/30 04:36:25;;;;;;;24.70;3.78;;;;;;;3.73;75.73;100418.81;5011976;28;20486;-60
2022/01/30 04:39:01;;;;;;;41.70;5.00;;;;;;;3.76;76.34;100426.41;5011582;28;20026;-60
2022/01/30 05:00:23;;;;;;;32.65;4.78;;;;;;;3.85;76.58;100433.38;5011308;28;20061;-60
2022/01/30 05:03:08;;;;;;;23.50;3.38;;;;;;;3.82;76.42;100431.03;5011542;28;20032;-60
2022/01/30 05:05:45;;;;;;;29.02;4.50;;;;;;;3.82;76.39;100428.38;5011239;28;20029;-60
2022/01/30 05:08:10;;;;;;;22.00;3.30;;;;;;;3.80;76.42;100433.06;5011648;28;20427;-60
2022/01/30 05:10:36;;;;;;;28.05;4.45;;;;;;;3.89;76.49;100437.31;5011699;28;20033;-60
2022/01/30 05:13:04;;;;;;;34.20;4.68;;;;;;;3.89;76.08;100442.63;5011177;28;20052;-59
2022/01/30 05:15:30;;;;;;;24.58;3.88;;;;;;;3.88;76.13;100436.50;5011193;28;20105;-60
2022/01/30 05:17:56;;;;;;;23.10;3.53;;;;;;;3.84;76.85;100444.97;5013719;28;20033;-60
2022/01/30 05:20:22;;;;;;;36.55;3.92;;;;;;;3.81;76.32;100450.59;4997882;28;20045;-60
2022/01/30 05:22:47;;;;;;;32.20;4.35;;;;;;;3.71;76.98;100444.66;5015360;28;20113;-60
2022/01/30 05:25:13;;;;;;;31.63;3.88;;;;;;;3.68;77.15;100448.47;5015083;28;20502;-60
2022/01/30 05:27:39;;;;;;;29.67;3.72;;;;;;;3.79;76.72;100452.59;5014845;28;20575;-60
2022/01/30 05:30:05;;;;;;;35.72;4.03;;;;;;;3.74;76.59;100454.94;5013890;28;20120;-60
2022/01/30 05:32:31;;;;;;;25.27;4.05;;;;;;;3.85;76.56;100459.91;5015129;28;20077;-60
2022/01/30 05:34:57;;;;;;;28.88;4.07;;;;;;;3.78;76.76;100461.56;5015575;28;20026;-60
2022/01/30 05:37:22;;;;;;;31.50;3.60;;;;;;;3.71;76.90;100455.28;5015491;28;20084;-60
2022/01/30 05:39:48;;;;;;;30.08;3.80;;;;;;;3.77;77.44;100470.50;5014853;28;20034;-60
2022/01/30 05:42:14;;;;;;;31.50;4.03;;;;;;;3.82;77.77;100465.50;5013222;28;20050;-60
2022/01/30 05:44:55;;;;;;;23.90;3.55;;;;;;;3.80;78.84;100464.88;5014913;28;20444;-60
2022/01/30 05:50:43;;;;;;;30.15;4.00;;;;;;;3.83;77.40;100467.19;5014597;28;20471;-60
2022/01/30 05:53:09;;;;;;;31.02;3.88;;;;;;;3.83;77.49;100469.84;5014809;28;20040;-60
2022/01/30 05:55:34;;;;;;;28.83;3.50;;;;;;;3.89;76.95;100475.31;5014214;28;20034;-60
2022/01/30 05:58:00;;;;;;;27.33;3.75;;;;;;;3.88;76.89;100473.63;5014739;28;20061;-60
2022/01/30 06:00:25;;;;;;;35.10;4.03;;;;;;;3.87;76.79;100471.16;5014057;28;20048;-60
2022/01/30 06:02:51;;;;;;;28.23;3.75;;;;;;;3.98;76.48;100473.47;5014286;28;20021;-60
2022/01/30 06:05:18;;;;;;;39.30;4.28;;;;;;;3.95;77.07;100471.16;5014559;28;20030;-60
2022/01/30 06:07:55;;;;;;;27.98;3.22;;;;;;;3.93;76.93;100481.09;5014207;28;20140;-59
2022/01/30 06:10:22;;;;;;;38.42;4.78;;;;;;;3.96;76.44;100480.75;5014261;28;20329;-59
2022/01/30 06:12:47;;;;;;;27.80;4.25;;;;;;;4.01;77.04;100485.56;5014131;28;20033;-60
2022/01/30 06:15:13;;;;;;;27.17;3.72;;;;;;;3.97;77.07;100497.50;5014352;28;20026;-59
2022/01/30 06:17:40;;;;;;;32.85;3.65;;;;;;;3.98;77.36;100499.97;5012935;28;20052;-60
2022/01/30 06:20:06;;;;;;;29.77;4.43;;;;;;;3.96;77.26;100488.72;5014315;28;20060;-60
2022/01/30 06:22:31;;;;;;;22.35;2.70;;;;;;;3.97;77.28;100508.94;5014283;28;20489;-60
2022/01/30 06:24:57;;;;;;;22.85;4.00;;;;;;;3.99;77.58;100501.63;5014735;28;20107;-59
2022/01/30 06:27:22;;;;;;;30.27;4.28;;;;;;;3.99;77.71;100501.63;5014165;28;20030;-59
2022/01/30 06:29:47;;;;;;;35.83;4.05;;;;;;;3.92;77.63;100510.44;5011930;28;20049;-59
2022/01/30 06:32:15;;;;;;;22.00;3.40;;;;;;;3.97;77.60;100502.78;5013873;28;20025;-60
2022/01/30 06:34:41;;;;;;;27.88;3.95;;;;;;;3.97;77.04;100506.28;5013757;28;20468;-60
2022/01/30 06:37:06;;;;;;;23.80;4.05;;;;;;;3.96;76.50;100509.09;5012814;28;20064;-59
2022/01/30 06:39:32;;;;;;;22.63;3.67;;;;;;;3.93;76.46;100502.31;5013768;28;20467;-60
2022/01/30 06:41:57;;;;;;;43.47;12.93;;;;;;;3.93;78.48;100512.09;5013939;28;20050;-59
2022/01/30 06:44:23;;;;;;;55.42;20.90;;;;;;;3.91;76.66;100506.94;5013702;28;20026;-60
2022/01/30 06:46:48;;;;;;;37.40;10.77;;;;;;;3.92;76.25;100510.44;5013911;28;20025;-60
2022/01/30 06:49:13;;;;;;;24.27;5.70;;;;;;;3.91;75.91;100509.59;5013832;28;20034;-60
2022/01/30 06:51:39;;;;;;;33.88;6.85;;;;;;;3.93;75.80;100504.97;5013342;28;20026;-60
2022/01/30 06:54:04;;;;;;;23.00;5.60;;;;;;;4.00;75.55;100508.59;5013436;28;20034;-60
2022/01/30 06:56:30;;;;;;;27.40;4.32;;;;;;;4.00;75.64;100513.91;5013183;28;20033;-60
2022/01/30 06:58:56;;;;;;;25.08;3.38;;;;;;;4.02;78.03;100511.06;5013586;28;20113;-60
2022/01/30 07:01:25;;;;;;;28.58;3.97;;;;;;;3.96;75.44;100511.75;5013276;28;20026;-60
2022/01/30 07:03:52;;;;;;;37.40;4.07;;;;;;;3.94;75.73;100514.56;5013240;28;20456;-60
2022/01/30 07:06:17;;;;;;;29.40;4.47;;;;;;;3.93;75.91;100528.84;5013173;28;20040;-60
2022/01/30 07:08:43;;;;;;;19.73;3.85;;;;;;;3.88;75.67;100526.69;5013392;28;20468;-60
2022/01/30 07:11:08;;;;;;;22.98;4.38;;;;;;;3.88;75.84;100517.91;5013261;28;20396;-60
2022/01/30 07:13:34;;;;;;;24.88;3.67;;;;;;;3.91;75.55;100530.81;5013039;28;20033;-60
2022/01/30 07:15:59;;;;;;;25.38;4.25;;;;;;;3.92;76.67;100527.19;5013412;28;20033;-60
2022/01/30 07:18:25;;;;;;;12.75;2.95;;;;;;;3.88;75.98;100531.16;5013038;28;20022;-60
2022/01/30 07:20:50;;;;;;;41.30;5.82;;;;;;;3.86;75.65;100533.97;5013331;28;20026;-60
2022/01/30 07:23:15;;;;;;;49.22;20.40;;;;;;;3.88;75.73;100536.47;5013227;28;20026;-59
2022/01/30 07:25:43;;;;;;;29.40;8.05;;;;;;;3.91;75.48;100538.78;5013767;28;20029;-60
2022/01/30 07:28:08;;;;;;;18.88;4.15;;;;;;;3.84;76.02;100535.13;5013266;28;20040;-60
2022/01/30 07:30:34;;;;;;;25.77;4.97;;;;;;;3.88;76.15;100542.59;5013154;28;20398;-60
2022/01/30 07:33:00;;;;;;;25.52;3.55;;;;;;;3.88;75.23;100536.47;5012770;28;20037;-60
2022/01/30 07:35:26;;;;;;;22.75;4.78;;;;;;;3.89;75.16;100538.13;4994907;28;20030;-60
2022/01/30 07:37:51;;;;;;;24.45;5.80;;;;;;;3.99;75.07;100548.56;5012918;28;20049;-60
2022/01/30 07:40:17;;;;;;;34.03;5.95;;;;;;;3.94;74.71;100543.75;5013043;28;20029;-60
2022/01/30 07:42:42;;;;;;;61.45;22.15;;;;;;;4.00;74.99;100551.06;5027616;28;20046;-60
2022/01/30 07:45:09;;;;;;;31.02;8.25;;;;;;;3.95;74.53;100556.03;5012569;28;20037;-60
2022/01/30 07:47:34;;;;;;;26.65;5.55;;;;;;;4.04;74.25;100555.03;5012633;28;20040;-60
2022/01/30 07:49:59;;;;;;;22.75;6.38;;;;;;;4.02;73.46;100554.38;5011169;28;20025;-60
2022/01/30 07:52:25;;;;;;;37.03;6.07;;;;;;;4.03;73.23;100566.63;5012561;28;20036;-60
2022/01/30 07:54:50;;;;;;;22.38;4.07;;;;;;;3.99;73.95;100567.94;5012554;28;20131;-60
2022/01/30 07:57:17;;;;;;;29.85;4.35;;;;;;;4.10;75.31;100572.94;5010966;28;20038;-60
2022/01/30 07:59:42;;;;;;;33.08;7.43;;;;;;;4.00;73.50;100572.28;5012596;28;20044;-60
2022/01/30 08:02:08;;;;;;;18.90;5.53;;;;;;;3.99;73.81;100564.47;5012765;28;20494;-60
2022/01/30 08:04:33;;;;;;;25.75;3.75;;;;;;;4.05;73.29;100569.94;5012419;28;20034;-59
2022/01/30 08:06:59;;;;;;;25.75;3.97;;;;;;;4.08;73.43;100574.91;5012761;28;20022;-60
2022/01/30 08:09:25;;;;;;;15.80;3.78;;;;;;;4.07;72.84;100583.88;5012667;28;20029;-60
2022/01/30 08:11:50;;;;;;;32.45;5.72;;;;;;;4.18;72.47;100588.00;5012507;28;20029;-60
2022/01/30 08:17:38;;;;;;;26.33;4.15;;;;;;;4.20;73.68;100593.16;5012351;28;20487;-61
2022/01/30 08:20:05;;;;;;;31.73;4.43;;;;;;;4.24;72.77;100591.81;5011482;28;20026;-59
2022/01/30 08:22:31;;;;;;;28.67;4.38;;;;;;;4.44;72.37;100602.91;5010490;28;20018;-60
2022/01/30 08:24:57;;;;;;;23.83;3.35;;;;;;;4.45;71.34;100601.91;5011977;28;20034;-60
2022/01/30 08:27:23;;;;;;;22.10;3.70;;;;;;;4.69;70.81;100604.53;5011723;28;20125;-60
2022/01/30 08:29:48;;;;;;;18.80;3.88;;;;;;;4.84;70.14;100606.44;5011597;28;20365;-60
2022/01/30 08:32:13;;;;;;;29.27;4.07;;;;;;;5.18;70.52;100614.94;5011120;28;20052;-60
2022/01/30 08:34:39;;;;;;;23.90;3.15;;;;;;;5.95;66.59;100622.16;5012202;28;20041;-60
2022/01/30 08:37:05;;;;;;;21.17;3.58;;;;;;;6.02;67.81;100614.31;5011578;28;20120;-60
2022/01/30 08:39:30;;;;;;;26.65;4.22;;;;;;;5.62;67.18;100617.03;5011835;28;20036;-60
2022/01/30 08:41:56;;;;;;;36.42;8.57;;;;;;;6.43;65.94;100616.59;5011358;28;20066;-60
2022/01/30 08:44:21;;;;;;;71.68;17.90;;;;;;;7.04;62.07;100617.28;5010060;28;20475;-60
2022/01/30 08:46:47;;;;;;;28.70;5.82;;;;;;;6.14;64.16;100620.84;5011211;28;20373;-60
2022/01/30 08:49:14;;;;;;;24.55;4.70;;;;;;;5.95;66.56;100621.34;5011705;28;20339;-60
2022/01/30 08:51:39;;;;;;;23.38;5.35;;;;;;;5.28;67.74;100625.38;5010907;28;20109;-60
2022/01/30 08:54:05;;;;;;;23.88;5.57;;;;;;;5.02;68.04;100630.13;5011704;28;20028;-60
2022/01/30 08:56:30;;;;;;;18.50;3.72;;;;;;;5.03;69.14;100623.84;5009929;28;20042;-60
2022/01/30 08:58:55;;;;;;;20.88;3.78;;;;;;;5.28;68.47;100635.19;5011496;28;20428;-60
2022/01/30 09:01:21;;;;;;;28.23;4.32;;;;;;;5.45;68.31;100647.41;5010966;28;20510;-60
2022/01/30 09:03:46;;;;;;;17.92;3.50;;;;;;;5.64;67.42;100646.09;5011105;28;20072;-60
2022/01/30 09:06:12;;;;;;;23.33;3.90;;;;;;;6.29;64.90;100650.19;5010726;28;20034;-60
2022/01/30 09:08:37;;;;;;;20.30;3.67;;;;;;;6.81;62.85;100645.84;5011248;28;20022;-60
2022/01/30 09:11:03;;;;;;;19.52;3.40;;;;;;;6.72;63.76;100652.28;5011057;28;20092;-60
2022/01/30 09:13:28;;;;;;;26.85;3.70;;;;;;;5.99;66.53;100649.25;5011664;28;20340;-60
2022/01/30 09:15:57;;;;;;;23.48;3.80;;;;;;;6.67;64.13;100653.66;5010873;28;20034;-60
2022/01/30 09:18:24;;;;;;;23.33;3.50;;;;;;;6.99;63.39;100649.00;5010951;28;20025;-59
2022/01/30 09:24:11;;;;;;;21.95;3.67;;;;;;;6.28;66.41;100642.38;5011440;28;20052;-60
2022/01/30 09:26:36;;;;;;;21.05;3.80;;;;;;;5.67;67.92;100640.47;5011139;28;20018;-60
2022/01/30 09:29:02;;;;;;;30.15;3.80;;;;;;;5.36;68.21;100638.63;5009752;28;20044;-60
2022/01/30 09:31:27;;;;;;;23.67;4.88;;;;;;;5.21;69.83;100624.41;5011479;28;20044;-59
2022/01/30 09:33:53;;;;;;;32.50;4.05;;;;;;;5.29;68.56;100627.06;5011379;28;20030;-60
2022/01/30 09:36:18;;;;;;;24.60;3.70;;;;;;;5.16;67.82;100626.75;5011377;28;20044;-60
2022/01/30 09:38:44;;;;;;;27.40;4.00;;;;;;;5.33;68.04;100630.19;5011100;28;20577;-60
2022/01/30 09:41:09;;;;;;;18.52;3.10;;;;;;;5.44;67.47;100618.31;5011088;28;20030;-60
2022/01/30 09:43:35;;;;;;;25.52;3.70;;;;;;;5.21;68.89;100605.81;5011004;28;20058;-60
2022/01/30 09:46:01;;;;;;;26.15;3.67;;;;;;;5.25;67.64;100615.09;5011249;28;20026;-60
2022/01/30 09:48:27;;;;;;;36.70;4.45;;;;;;;5.61;66.07;100606.56;5011447;28;20022;-60
2022/01/30 09:50:53;;;;;;;26.88;4.55;;;;;;;5.69;66.12;100611.84;5011261;28;20041;-61
2022/01/30 09:53:18;;;;;;;33.80;3.58;;;;;;;5.47;65.17;100607.34;5009939;28;20098;-59
2022/01/30 09:55:44;;;;;;;25.52;3.80;;;;;;;6.01;63.32;100613.44;5011226;28;20045;-59
2022/01/30 09:58:09;;;;;;;26.50;3.90;;;;;;;6.14;63.97;100609.34;5011228;28;20534;-60
2022/01/30 10:00:35;;;;;;;25.17;3.15;;;;;;;5.86;63.71;100611.72;5011043;28;20037;-60
2022/01/30 10:03:00;;;;;;;25.13;3.58;;;;;;;5.84;64.73;100623.38;5011097;28;20355;-59
2022/01/30 10:05:29;;;;;;;32.05;4.30;;;;;;;6.08;63.40;100616.25;5013881;28;20034;-60
2022/01/30 10:07:57;;;;;;;15.00;3.13;;;;;;;7.66;58.33;100604.41;5014234;28;20053;-60
2022/01/30 10:10:28;;;;;;;27.33;3.53;;;;;;;7.91;55.87;100610.22;5014183;28;20079;-60
2022/01/30 10:13:11;;;;;;;29.95;4.15;;;;;;;7.67;57.86;100616.75;5012932;28;20437;-60
2022/01/30 10:15:53;;;;;;;28.30;3.47;;;;;;;8.06;55.80;100610.13;5014575;28;20025;-60
2022/01/30 10:18:19;;;;;;;21.70;3.50;;;;;;;8.13;56.12;100605.69;5013935;28;20130;-60
2022/01/30 10:20:45;;;;;;;37.28;4.97;;;;;;;8.37;54.86;100607.94;5012811;28;20373;-59
2022/01/30 10:23:11;;;;;;;32.20;3.58;;;;;;;8.00;54.71;100607.22;5012596;28;20125;-60
2022/01/30 10:25:39;;;;;;;18.70;3.15;;;;;;;8.06;54.83;100610.97;5012868;28;20029;-60
2022/01/30 10:28:06;;;;;;;28.13;3.60;;;;;;;7.81;55.87;100602.50;5014585;28;20033;-60
2022/01/30 10:30:51;;;;;;;27.05;3.88;;;;;;;7.92;54.24;100610.03;5013838;28;20029;-60
2022/01/30 10:33:19;;;;;;;26.52;3.90;;;;;;;7.99;55.03;100616.25;5013843;28;20037;-60
2022/01/30 10:35:52;;;;;;;19.08;3.00;;;;;;;8.21;52.94;100614.41;5014129;28;20048;-59
2022/01/30 10:38:24;;;;;;;21.67;3.67;;;;;;;7.44;53.59;100606.22;5012783;28;20471;-60
2022/01/30 10:40:57;;;;;;;24.45;3.65;;;;;;;7.28;54.87;100608.13;5013883;28;20037;-60
2022/01/30 10:43:23;;;;;;;23.50;3.42;;;;;;;7.22;54.94;100614.22;5013730;28;20054;-59
2022/01/30 10:45:48;;;;;;;29.35;3.40;;;;;;;7.01;56.30;100611.47;5013346;28;20030;-59
2022/01/30 10:51:35;;;;;;;23.92;3.35;;;;;;;8.12;53.94;100620.06;5013801;28;20121;-59
2022/01/30 10:54:11;;;;;;;25.17;3.53;;;;;;;8.35;51.80;100615.31;5012209;28;20368;-60
2022/01/30 10:56:37;;;;;;;34.20;4.60;;;;;;;7.08;55.43;100607.88;5013033;28;20034;-60
2022/01/30 10:59:16;;;;;;;28.67;4.00;;;;;;;6.81;56.41;100614.69;5013501;28;20022;-60
2022/01/30 11:01:46;;;;;;;38.00;8.63;;;;;;;6.87;55.71;100607.81;5013188;28;20048;-59
2022/01/30 11:04:25;;;;;;;38.30;7.35;;;;;;;6.70;57.11;100621.31;5013423;28;20048;-60
2022/01/30 11:06:51;;;;;;;37.70;8.20;;;;;;;6.69;56.79;100624.16;5012813;28;20124;-59
2022/01/30 11:09:30;;;;;;;44.08;10.23;;;;;;;6.55;57.09;100617.81;5013625;28;20112;-59
2022/01/30 11:12:01;;;;;;;38.13;8.30;;;;;;;6.28;57.84;100610.41;5013060;28;20132;-60
2022/01/30 11:14:38;;;;;;;36.63;11.18;;;;;;;6.16;58.60;100602.03;5013241;28;20391;-59
2022/01/30 11:17:04;;;;;;;39.35;5.82;;;;;;;6.12;58.90;100609.56;5012720;28;20387;-60
2022/01/30 11:19:31;;;;;;;25.85;5.13;;;;;;;6.82;58.44;100610.22;5011877;28;20030;-59
2022/01/30 11:22:05;;;;;;;30.23;5.05;;;;;;;6.63;57.16;100607.06;5012424;28;20045;-60
2022/01/30 11:24:33;;;;;;;30.98;5.15;;;;;;;6.36;58.52;100602.34;5013117;28;20403;-60
2022/01/30 11:26:59;;;;;;;37.70;4.68;;;;;;;6.39;57.74;100599.31;5010737;28;20038;-59
2022/01/30 11:29:24;;;;;;;22.33;3.63;;;;;;;6.14;56.98;100604.88;5011649;28;20050;-59
2022/01/30 11:31:50;;;;;;;35.08;5.68;;;;;;;6.09;57.56;100604.59;5011204;28;20037;-60
2022/01/30 11:34:15;;;;;;;34.83;5.03;;;;;;;6.42;57.19;100601.63;5012661;28;20033;-60
2022/01/30 11:36:42;;;;;;;32.22;5.68;;;;;;;6.57;56.63;100607.81;5012560;28;20065;-59
2022/01/30 11:39:08;;;;;;;32.65;4.60;;;;;;;6.33;57.35;100598.22;5011772;28;20041;-60
2022/01/30 11:41:34;;;;;;;28.35;4.40;;;;;;;6.46;57.47;100605.56;5012005;28;20056;-60
2022/01/30 11:44:18;;;;;;;27.27;4.78;;;;;;;6.95;56.28;100602.38;5012551;28;20037;-59
2022/01/30 11:46:53;;;;;;;33.35;5.40;;;;;;;6.68;56.48;100612.66;5011925;28;20175;-59
2022/01/30 11:49:19;;;;;;;35.83;4.50;;;;;;;6.36;57.40;100595.19;5012334;28;20066;-59
2022/01/30 11:51:51;;;;;;;39.42;5.00;;;;;;;6.34;56.68;100594.56;5012312;28;20042;-60
2022/01/30 11:55:01;;;;;;;31.35;4.05;;;;;;;6.07;55.79;100601.28;5012136;28;20026;-59
2022/01/30 11:57:29;;;;;;;21.05;3.40;;;;;;;5.82;56.74;100603.28;5012675;28;20045;-59
2022/01/30 12:00:00;;;;;;;30.75;3.90;;;;;;;5.96;57.37;100604.34;5012351;28;20030;-59
2022/01/30 12:02:31;;;;;;;31.40;4.47;;;;;;;5.92;57.03;100597.72;5012267;28;20069;-60
2022/01/30 12:05:07;;;;;;;31.25;4.85;;;;;;;6.16;56.93;100592.19;5012283;28;20034;-59
2022/01/30 12:07:45;;;;;;;47.22;6.05;;;;;;;6.39;57.41;100576.19;5011650;28;20128;-60
2022/01/30 12:10:20;;;;;;;37.55;4.45;;;;;;;6.65;57.21;100586.38;5010385;28;20025;-60
2022/01/30 12:12:52;;;;;;;34.50;5.15;;;;;;;7.25;55.97;100581.00;5010564;28;20026;-60
2022/01/30 12:15:39;;;;;;;37.63;5.20;;;;;;;7.20;54.85;100576.22;5011574;28;20476;-59
2022/01/30 12:18:05;;;;;;;36.70;4.70;;;;;;;7.40;55.02;100589.78;5012206;28;20044;-59
2022/01/30 12:20:59;;;;;;;29.50;3.90;;;;;;;7.09;55.24;100585.53;5011806;28;20156;-59
2022/01/30 12:23:31;;;;;;;32.38;5.03;;;;;;;6.95;55.55;100591.72;5011566;28;20452;-61
2022/01/30 12:26:05;;;;;;;31.35;4.55;;;;;;;7.01;55.24;100590.13;5011306;28;20088;-61
2022/01/30 12:28:52;;;;;;;31.90;4.63;;;;;;;6.77;55.89;100589.44;5010367;28;20053;-60
2022/01/30 12:31:25;;;;;;;35.00;5.38;;;;;;;6.77;56.68;100583.28;5011974;28;20139;-60